Archbold, Ohio
Current Conditions -  °F | °C
As of 5:55 PM on Monday 24 Nov 2014 (Local Time) from KUSE Reporting Station
Overcast Overcast  
Wind Chill: 22°   Ceiling: 2400
Heat Index: 36°   Visibility: 10mi
Dew Point: 30°   Wind: 31mph
Humidity: 81%   Direction: 240°WSW
Pressure: 29.59"   Gusts: 43mph
Location:  41.52°N, 84.31°W
Report Text: KUSE 242255Z AUTO 24027G37KT 10SM OVC024 02/M01 A2959 RMK AO2
Loading
Personal Weather Stations






























Interactive Weather Map New forecast layout! Learn more

10-Day Weather Forecast

Advertisements
Track Severe Weather on mobile